createdAt,value
2022-08-11T00:01:26.118Z,3.90
2022-08-11T00:03:58.811Z,4.90
2022-08-11T00:06:28.586Z,4.70
2022-08-11T00:08:56.338Z,5.00
2022-08-11T00:11:33.977Z,4.73
2022-08-11T00:14:02.677Z,4.47
2022-08-11T00:16:30.421Z,5.47
2022-08-11T00:18:59.023Z,8.07
2022-08-11T00:21:32.523Z,5.93
2022-08-11T00:24:15.032Z,4.30
2022-08-11T00:26:48.760Z,5.07
2022-08-11T00:29:16.297Z,5.40
2022-08-11T00:31:52.820Z,3.70
2022-08-11T00:34:28.446Z,4.80
2022-08-11T00:37:07.656Z,4.90
2022-08-11T00:39:43.783Z,11.70
2022-08-11T00:42:59.867Z,4.37
2022-08-11T00:45:39.487Z,4.00
2022-08-11T00:48:06.263Z,5.40
2022-08-11T00:51:05.217Z,4.60
2022-08-11T00:53:36.644Z,4.63
2022-08-11T00:56:40.865Z,4.30
2022-08-11T00:59:40.975Z,6.57
2022-08-11T01:02:38.978Z,4.13
2022-08-11T01:05:34.490Z,4.80
2022-08-11T01:08:34.611Z,4.57
2022-08-11T01:11:18.886Z,5.90
2022-08-11T01:14:12.749Z,5.10
2022-08-11T01:17:08.951Z,5.07
2022-08-11T01:20:45.516Z,4.00
2022-08-11T01:23:15.820Z,4.53
2022-08-11T01:26:03.024Z,4.93
2022-08-11T01:29:11.539Z,6.93
2022-08-11T01:32:18.091Z,4.43
2022-08-11T01:35:03.791Z,4.00
2022-08-11T01:37:49.121Z,4.57
2022-08-11T01:40:40.631Z,4.80
2022-08-11T01:43:28.686Z,4.00
2022-08-11T01:46:22.713Z,4.30
2022-08-11T01:50:08.549Z,4.70
2022-08-11T01:52:33.380Z,4.43
2022-08-11T01:55:24.243Z,4.93
2022-08-11T01:58:22.331Z,4.57
2022-08-11T02:01:32.248Z,4.70
2022-08-11T02:04:12.942Z,4.47
2022-08-11T02:06:56.201Z,4.60
2022-08-11T02:09:29.156Z,4.97
2022-08-11T02:12:18.689Z,4.30
2022-08-11T02:15:19.749Z,4.93
2022-08-11T02:18:23.271Z,4.63
2022-08-11T02:21:18.788Z,4.73
2022-08-11T02:24:04.989Z,5.87
2022-08-11T02:26:46.712Z,6.87
2022-08-11T02:29:43.010Z,6.50
2022-08-11T02:32:44.279Z,5.70
2022-08-11T02:35:42.579Z,4.57
2022-08-11T02:38:19.973Z,4.57
2022-08-11T02:41:25.912Z,4.60
2022-08-11T02:44:29.648Z,5.37
2022-08-11T02:46:56.459Z,5.30
2022-08-11T02:50:02.671Z,4.50
2022-08-11T02:52:46.433Z,6.50
2022-08-11T02:55:45.955Z,5.80
2022-08-11T02:58:13.421Z,6.93
2022-08-11T03:00:57.149Z,4.77
2022-08-11T03:03:38.212Z,4.90
2022-08-11T03:06:37.950Z,5.00
2022-08-11T03:09:09.410Z,4.90
2022-08-11T03:12:00.814Z,4.40
2022-08-11T03:15:23.893Z,5.93
2022-08-11T03:18:26.247Z,5.70
2022-08-11T03:21:06.204Z,4.80
2022-08-11T03:23:49.894Z,9.13
2022-08-11T03:26:24.207Z,4.90
2022-08-11T03:29:06.762Z,4.77
2022-08-11T03:31:51.938Z,5.00
2022-08-11T03:34:33.991Z,5.07
2022-08-11T03:37:16.880Z,5.13
2022-08-11T03:39:57.633Z,5.53
2022-08-11T03:42:27.219Z,4.97
2022-08-11T03:45:09.849Z,4.50
2022-08-11T03:48:20.984Z,4.97
2022-08-11T03:51:05.209Z,4.63
2022-08-11T03:54:03.731Z,5.37
2022-08-11T03:57:08.950Z,5.37
2022-08-11T03:59:54.078Z,6.47
2022-08-11T04:03:09.451Z,4.67
2022-08-11T04:05:50.665Z,5.80
2022-08-11T04:08:34.195Z,6.43
2022-08-11T04:11:12.048Z,4.80
2022-08-11T04:14:29.124Z,5.60
2022-08-11T04:17:19.712Z,7.67
2022-08-11T04:20:11.165Z,4.17
2022-08-11T04:22:56.144Z,5.90
2022-08-11T04:25:58.267Z,4.93
2022-08-11T04:28:31.315Z,8.90
2022-08-11T04:31:10.856Z,4.73
2022-08-11T04:33:48.632Z,7.80
2022-08-11T04:36:52.530Z,4.90
2022-08-11T04:39:34.704Z,4.63
2022-08-11T04:42:52.738Z,5.13
2022-08-11T04:45:38.039Z,5.00
2022-08-11T04:48:35.551Z,4.97
2022-08-11T04:51:45.856Z,5.57
2022-08-11T04:54:46.291Z,5.30
2022-08-11T04:57:59.148Z,4.70
2022-08-11T05:01:11.674Z,9.33
2022-08-11T05:04:05.316Z,20.00
2022-08-11T05:07:08.470Z,11.70
2022-08-11T05:10:03.597Z,8.00
2022-08-11T05:12:36.843Z,7.60
2022-08-11T05:15:22.958Z,7.30
2022-08-11T05:18:19.354Z,37.37
2022-08-11T05:21:10.463Z,13.47
2022-08-11T05:24:10.668Z,20.23
2022-08-11T05:27:09.958Z,14.47
2022-08-11T05:30:10.300Z,12.30
2022-08-11T05:33:02.052Z,11.23
2022-08-11T05:36:01.970Z,13.37
2022-08-11T05:38:52.054Z,8.40
2022-08-11T05:41:43.248Z,12.33
2022-08-11T05:44:30.196Z,6.60
2022-08-11T05:47:16.000Z,10.63
2022-08-11T05:50:08.017Z,10.13
2022-08-11T05:52:56.552Z,12.10
2022-08-11T05:55:58.396Z,13.53
2022-08-11T05:58:42.922Z,14.07
2022-08-11T06:01:12.351Z,28.77
2022-08-11T06:04:01.871Z,18.40
2022-08-11T06:06:29.441Z,37.10
2022-08-11T06:08:58.142Z,21.07
2022-08-11T06:11:43.916Z,19.60
2022-08-11T06:14:12.566Z,15.70
2022-08-11T06:16:42.470Z,17.17
2022-08-11T06:19:10.374Z,13.60
2022-08-11T06:21:38.104Z,17.07
2022-08-11T06:24:12.250Z,11.93
2022-08-11T06:27:08.743Z,18.10
2022-08-11T06:29:37.872Z,21.40
2022-08-11T06:32:16.415Z,35.30
2022-08-11T06:35:12.784Z,229.23
2022-08-11T06:37:45.369Z,187.30
2022-08-11T06:40:35.211Z,145.63
2022-08-11T06:43:17.013Z,157.67
2022-08-11T06:45:55.683Z,108.10
2022-08-11T06:48:24.377Z,113.97
2022-08-11T06:51:12.175Z,95.63
2022-08-11T06:54:03.603Z,68.17
2022-08-11T06:57:18.561Z,33.60
2022-08-11T07:00:01.240Z,78.57
2022-08-11T07:02:36.408Z,54.80
2022-08-11T07:05:20.972Z,42.93
2022-08-11T07:08:34.470Z,82.27
2022-08-11T07:11:39.154Z,66.07
2022-08-11T07:14:26.330Z,66.70
2022-08-11T07:16:54.145Z,53.10
2022-08-11T07:19:44.075Z,13.90
2022-08-11T07:22:30.504Z,43.40
2022-08-11T07:25:25.914Z,9.47
2022-08-11T07:28:18.391Z,14.55
2022-08-11T07:30:46.873Z,40.25
2022-08-11T07:34:07.985Z,17.73
2022-08-11T07:36:12.786Z,28.58
2022-08-11T07:38:45.089Z,14.82
2022-08-11T07:41:16.260Z,24.40
2022-08-11T07:43:49.011Z,190.25
2022-08-11T07:46:35.035Z,12.00
2022-08-11T07:49:23.030Z,26.63
2022-08-11T07:52:09.043Z,26.67
2022-08-11T07:54:38.149Z,13.15
2022-08-11T07:57:46.132Z,8.52
2022-08-11T08:00:32.846Z,28.33
2022-08-11T08:03:20.209Z,20.85
2022-08-11T08:06:22.219Z,12.68
2022-08-11T08:09:15.118Z,15.65
2022-08-11T08:12:02.225Z,33.13
2022-08-11T08:14:48.207Z,148.43
2022-08-11T08:17:34.046Z,30.55
2022-08-11T08:20:01.189Z,87.60
2022-08-11T08:22:37.991Z,48.50
2022-08-11T08:25:07.494Z,24.02
2022-08-11T08:27:35.866Z,9.50
2022-08-11T08:30:22.985Z,14.93
2022-08-11T08:32:51.707Z,29.05
2022-08-11T08:35:19.215Z,13.52
2022-08-11T08:37:47.695Z,17.50
2022-08-11T08:40:15.214Z,8.40
2022-08-11T08:42:54.961Z,17.23
2022-08-11T08:45:23.465Z,15.30
2022-08-11T08:48:00.300Z,9.65
2022-08-11T08:50:52.038Z,15.75
2022-08-11T08:53:24.301Z,19.02
2022-08-11T08:55:52.686Z,19.70
2022-08-11T08:58:21.836Z,19.05
2022-08-11T09:00:51.902Z,13.50
2022-08-11T09:06:07.350Z,21.88
2022-08-11T09:08:35.192Z,10.50
2022-08-11T09:11:23.040Z,17.25
2022-08-11T09:14:06.538Z,12.98
2022-08-11T09:16:36.522Z,18.88
2022-08-11T09:19:04.022Z,11.95
2022-08-11T09:21:36.856Z,5.25
2022-08-11T09:24:34.037Z,8.25
2022-08-11T09:27:08.340Z,7.65
2022-08-11T09:29:36.042Z,13.65
2022-08-11T09:32:03.021Z,10.18
2022-08-11T09:34:30.881Z,15.88
2022-08-11T09:37:28.545Z,17.45
2022-08-11T09:40:27.223Z,9.13
2022-08-11T09:43:17.110Z,12.68
2022-08-11T09:45:51.940Z,4.07
2022-08-11T09:48:21.318Z,8.98
2022-08-11T09:50:50.940Z,7.70
2022-08-11T09:53:35.728Z,10.25
2022-08-11T09:56:31.308Z,6.63
2022-08-11T09:58:59.013Z,7.63
2022-08-11T10:01:30.947Z,5.00
2022-08-11T10:04:17.795Z,6.47
2022-08-11T10:07:05.274Z,5.90
2022-08-11T10:09:55.889Z,2.38
2022-08-11T10:12:29.594Z,6.65
2022-08-11T10:15:20.510Z,8.07
2022-08-11T10:18:08.989Z,5.18
2022-08-11T10:20:37.866Z,3.22
2022-08-11T10:23:23.592Z,6.50
2022-08-11T10:26:10.255Z,4.75
2022-08-11T10:29:02.113Z,6.00
2022-08-11T10:31:57.571Z,3.30
2022-08-11T10:34:29.118Z,7.88
2022-08-11T10:36:57.273Z,5.97
2022-08-11T10:39:25.196Z,4.38
2022-08-11T10:42:17.234Z,5.82
2022-08-11T10:44:59.039Z,2.13
2022-08-11T10:47:35.442Z,3.10
2022-08-11T10:50:23.001Z,5.80
2022-08-11T10:53:10.006Z,3.17
2022-08-11T10:55:58.478Z,4.27
2022-08-11T10:58:44.794Z,5.40
2022-08-11T11:01:12.445Z,2.97
2022-08-11T11:03:40.617Z,7.43
2022-08-11T11:06:29.866Z,3.20
2022-08-11T11:09:05.354Z,3.07
2022-08-11T11:11:55.973Z,2.30
2022-08-11T11:14:49.768Z,2.33
2022-08-11T11:17:55.775Z,3.60
2022-08-11T11:20:37.421Z,2.53
2022-08-11T11:23:09.705Z,2.70
2022-08-11T11:26:06.425Z,2.30
2022-08-11T11:28:59.766Z,5.10
2022-08-11T11:31:42.379Z,2.83
2022-08-11T11:34:53.298Z,4.80
2022-08-11T11:37:23.056Z,5.33
2022-08-11T11:39:54.444Z,7.10
2022-08-11T11:42:22.164Z,2.17
2022-08-11T11:44:49.330Z,2.20
2022-08-11T11:47:22.943Z,3.03
2022-08-11T11:49:50.200Z,1.93
2022-08-11T11:52:20.168Z,2.17
2022-08-11T11:54:51.767Z,2.83
2022-08-11T11:57:38.686Z,3.53
2022-08-11T12:00:33.355Z,3.00
2022-08-11T12:03:03.178Z,8.77
2022-08-11T12:05:33.596Z,1.87
2022-08-11T12:08:15.238Z,2.23
2022-08-11T12:10:49.487Z,3.57
2022-08-11T12:13:36.671Z,3.07
2022-08-11T12:16:32.326Z,2.73
2022-08-11T12:18:58.137Z,1.97
2022-08-11T12:21:27.385Z,1.80
2022-08-11T12:24:14.838Z,2.23
2022-08-11T12:27:14.972Z,2.13
2022-08-11T12:29:41.224Z,3.03
2022-08-11T12:32:10.979Z,5.03
2022-08-11T12:34:37.907Z,3.30
2022-08-11T12:37:10.813Z,2.40
2022-08-11T12:40:16.415Z,3.87
2022-08-11T12:43:21.150Z,2.40
2022-08-11T12:45:54.056Z,2.80
2022-08-11T12:48:59.471Z,1.77
2022-08-11T12:52:12.292Z,2.60
2022-08-11T12:54:47.258Z,1.50
2022-08-11T12:57:37.439Z,2.00
2022-08-11T13:00:27.814Z,1.67
2022-08-11T13:03:14.807Z,3.93
2022-08-11T13:05:45.006Z,3.60
2022-08-11T13:08:15.052Z,2.47
2022-08-11T13:11:01.665Z,3.03
2022-08-11T13:13:54.906Z,1.60
2022-08-11T13:16:17.627Z,1.60
2022-08-11T13:18:44.920Z,3.20
2022-08-11T13:21:20.040Z,3.23
2022-08-11T13:24:00.930Z,4.43
2022-08-11T13:26:47.274Z,2.53
2022-08-11T13:29:24.235Z,1.97
2022-08-11T13:31:53.758Z,2.43
2022-08-11T13:34:22.955Z,4.50
2022-08-11T13:36:53.240Z,1.50
2022-08-11T13:39:21.363Z,2.50
2022-08-11T13:41:53.192Z,1.80
2022-08-11T13:44:25.549Z,113.43
2022-08-11T13:46:56.665Z,13.30
2022-08-11T13:49:24.057Z,4.10
2022-08-11T13:51:51.503Z,6.37
2022-08-11T13:54:28.101Z,3.47
2022-08-11T13:56:57.254Z,5.50
2022-08-11T13:59:30.100Z,4.10
2022-08-11T14:02:22.070Z,5.13
2022-08-11T14:04:58.764Z,3.53
2022-08-11T14:07:28.291Z,4.50
2022-08-11T14:09:59.903Z,2.20
2022-08-11T14:12:47.808Z,4.40
2022-08-11T14:15:20.015Z,1.70
2022-08-11T14:17:50.756Z,3.00
2022-08-11T14:20:40.098Z,2.00
2022-08-11T14:23:06.373Z,1.70
2022-08-11T14:25:59.657Z,2.23
2022-08-11T14:28:32.912Z,2.27
2022-08-11T14:31:05.317Z,3.10
2022-08-11T14:33:53.575Z,3.60
2022-08-11T14:36:23.796Z,2.33
2022-08-11T14:38:53.471Z,5.30
2022-08-11T14:42:07.537Z,3.37
2022-08-11T14:44:45.932Z,6.63
2022-08-11T14:47:23.433Z,8.97
2022-08-11T14:49:58.181Z,6.40
2022-08-11T14:52:39.055Z,3.77
2022-08-11T14:55:26.074Z,4.53
2022-08-11T14:57:57.021Z,2.80
2022-08-11T15:00:25.258Z,2.70
2022-08-11T15:03:12.451Z,4.00
2022-08-11T15:05:41.921Z,2.50
2022-08-11T15:08:43.302Z,2.43
2022-08-11T15:11:34.014Z,1.90
2022-08-11T15:14:03.975Z,2.80
2022-08-11T15:16:49.969Z,3.13
2022-08-11T15:19:21.791Z,1.87
2022-08-11T15:22:08.409Z,2.53
2022-08-11T15:24:36.580Z,2.47
2022-08-11T15:27:31.035Z,2.23
2022-08-11T15:30:32.657Z,1.90
2022-08-11T15:33:24.351Z,2.00
2022-08-11T15:36:11.900Z,1.70
2022-08-11T15:39:09.109Z,1.63
2022-08-11T15:42:21.960Z,3.70
2022-08-11T15:45:13.548Z,1.90
2022-08-11T15:47:49.819Z,2.03
2022-08-11T15:50:20.250Z,2.17
2022-08-11T15:52:59.061Z,2.13
2022-08-11T15:55:28.489Z,4.00
2022-08-11T15:58:14.486Z,1.83
2022-08-11T16:01:04.290Z,2.03
2022-08-11T16:04:07.840Z,1.70
2022-08-11T16:06:49.466Z,2.40
2022-08-11T16:09:22.539Z,3.60
2022-08-11T16:11:51.306Z,2.63
2022-08-11T16:14:38.308Z,2.37
2022-08-11T16:17:07.118Z,2.50
2022-08-11T16:19:36.512Z,2.63
2022-08-11T16:22:08.109Z,2.00
2022-08-11T16:27:04.683Z,3.47
2022-08-11T16:27:35.364Z,2.03
2022-08-11T16:30:05.142Z,3.27
2022-08-11T16:32:33.260Z,7.70
2022-08-11T16:35:28.869Z,4.57
2022-08-11T16:38:15.706Z,2.67
2022-08-11T16:40:44.353Z,5.80
2022-08-11T16:43:34.199Z,3.60
2022-08-11T16:46:22.695Z,3.77
2022-08-11T16:48:50.826Z,3.40
2022-08-11T16:51:20.799Z,2.50
2022-08-11T16:54:04.696Z,2.70
2022-08-11T16:56:53.917Z,2.50
2022-08-11T16:59:32.470Z,2.70
2022-08-11T17:02:35.306Z,7.27
2022-08-11T17:05:33.967Z,2.33
2022-08-11T17:08:26.389Z,4.37
2022-08-11T17:11:21.085Z,2.77
2022-08-11T17:13:55.625Z,2.13
2022-08-11T17:16:35.689Z,2.50
2022-08-11T17:20:40.445Z,2.47
2022-08-11T17:22:35.090Z,4.33
2022-08-11T17:25:04.763Z,2.10
2022-08-11T17:27:33.091Z,2.40
2022-08-11T17:30:03.319Z,2.50
2022-08-11T17:33:00.512Z,3.53
2022-08-11T17:35:35.087Z,2.10
2022-08-11T17:38:05.408Z,4.03
2022-08-11T17:40:37.065Z,3.53
2022-08-11T17:43:27.029Z,5.43
2022-08-11T17:46:05.305Z,2.03
2022-08-11T17:48:47.630Z,1.87
2022-08-11T17:51:38.253Z,2.50
2022-08-11T17:54:26.071Z,2.03
2022-08-11T17:57:20.177Z,2.80
2022-08-11T17:59:52.130Z,2.50
2022-08-11T18:02:43.277Z,2.70
2022-08-11T18:05:13.563Z,2.73
2022-08-11T18:08:01.607Z,2.73
2022-08-11T18:10:49.719Z,2.33
2022-08-11T18:13:41.751Z,4.83
2022-08-11T18:16:28.228Z,2.30
2022-08-11T18:19:14.511Z,4.40
2022-08-11T18:22:14.699Z,2.33
2022-08-11T18:25:06.306Z,3.17
2022-08-11T18:27:54.775Z,2.43
2022-08-11T18:30:41.152Z,3.80
2022-08-11T18:36:39.465Z,3.10
2022-08-11T18:39:28.999Z,1.80
2022-08-11T18:42:28.897Z,5.10
2022-08-11T18:45:20.065Z,2.17
2022-08-11T18:48:11.561Z,3.67
2022-08-11T18:51:30.958Z,4.47
2022-08-11T18:54:11.516Z,2.40
2022-08-11T18:56:57.566Z,3.20
2022-08-11T18:59:45.109Z,1.87
2022-08-11T19:02:33.056Z,2.40
2022-08-11T19:06:35.981Z,2.17
2022-08-11T19:08:41.326Z,3.27
2022-08-11T19:11:29.166Z,3.50
2022-08-11T19:14:16.024Z,2.80
2022-08-11T19:17:02.695Z,3.20
2022-08-11T19:19:50.328Z,2.27
2022-08-11T19:22:37.914Z,4.87
2022-08-11T19:25:25.677Z,2.07
2022-08-11T19:28:13.006Z,2.10
2022-08-11T19:30:58.938Z,3.43
2022-08-11T19:34:02.957Z,4.60
2022-08-11T19:36:52.478Z,5.37
2022-08-11T19:39:39.674Z,3.67
2022-08-11T19:42:27.506Z,2.70
2022-08-11T19:45:14.565Z,3.30
2022-08-11T19:48:30.058Z,2.13
2022-08-11T19:51:09.530Z,4.50
2022-08-11T19:53:56.698Z,3.17
2022-08-11T19:56:42.672Z,3.20
2022-08-11T19:59:29.279Z,2.50
2022-08-11T20:02:15.018Z,3.10
2022-08-11T20:05:01.390Z,2.50
2022-08-11T20:07:48.361Z,2.60
2022-08-11T20:10:38.635Z,3.97
2022-08-11T20:13:28.699Z,2.33
2022-08-11T20:16:16.650Z,2.23
2022-08-11T20:19:04.160Z,6.10
2022-08-11T20:21:50.834Z,2.50
2022-08-11T20:24:37.009Z,4.87
2022-08-11T20:27:25.408Z,2.77
2022-08-11T20:30:13.110Z,6.63
2022-08-11T20:33:00.888Z,3.10
2022-08-11T20:35:47.904Z,3.00
2022-08-11T20:38:34.643Z,2.37
2022-08-11T20:41:22.266Z,3.43
2022-08-11T20:44:09.873Z,2.57
2022-08-11T20:46:57.571Z,4.07
2022-08-11T20:49:53.684Z,3.17
2022-08-11T20:52:48.058Z,2.50
2022-08-11T20:55:46.456Z,2.87
2022-08-11T21:01:45.921Z,3.67
2022-08-11T21:04:32.394Z,2.37
2022-08-11T21:07:27.728Z,2.27
2022-08-11T21:10:24.044Z,2.53
2022-08-11T21:13:25.424Z,2.63
2022-08-11T21:16:25.376Z,4.10
2022-08-11T21:19:56.391Z,3.03
2022-08-11T21:22:28.186Z,3.40
2022-08-11T21:25:16.252Z,3.90
2022-08-11T21:28:03.257Z,2.47
2022-08-11T21:30:51.668Z,5.50
2022-08-11T21:33:45.970Z,3.23
2022-08-11T21:36:32.912Z,2.70
2022-08-11T21:39:24.666Z,3.30
2022-08-11T21:42:13.060Z,2.67
2022-08-11T21:45:01.067Z,3.13
2022-08-11T21:47:48.216Z,3.87
2022-08-11T21:50:33.896Z,3.10
2022-08-11T21:53:19.760Z,2.80
2022-08-11T21:56:05.447Z,2.50
2022-08-11T21:58:51.501Z,6.97
2022-08-11T22:01:37.660Z,3.30
2022-08-11T22:04:24.999Z,1.97
2022-08-11T22:07:10.945Z,2.90
2022-08-11T22:09:57.071Z,3.00
2022-08-11T22:12:45.205Z,2.80
2022-08-11T22:15:31.504Z,2.10
2022-08-11T22:18:17.119Z,4.20
2022-08-11T22:21:03.570Z,4.73
2022-08-11T22:23:51.525Z,2.70
2022-08-11T22:26:39.714Z,2.83
2022-08-11T22:29:50.702Z,3.90
2022-08-11T22:32:33.521Z,3.87
2022-08-11T22:35:21.316Z,3.93
2022-08-11T22:38:07.771Z,2.27
2022-08-11T22:40:54.911Z,4.33
2022-08-11T22:43:40.348Z,2.50
2022-08-11T22:46:25.912Z,3.97
2022-08-11T22:49:12.687Z,3.30
2022-08-11T22:51:59.709Z,3.93
2022-08-11T22:54:45.921Z,3.70
2022-08-11T22:57:33.456Z,4.50
2022-08-11T23:00:20.147Z,3.57
2022-08-11T23:03:06.717Z,2.30
2022-08-11T23:05:57.140Z,2.20
2022-08-11T23:08:43.387Z,4.70
2022-08-11T23:11:33.101Z,2.83
2022-08-11T23:14:34.591Z,4.53
2022-08-11T23:17:20.560Z,4.10
2022-08-11T23:20:23.764Z,4.27
2022-08-11T23:23:12.521Z,2.63
2022-08-11T23:25:59.353Z,2.60
2022-08-11T23:28:46.756Z,2.30
2022-08-11T23:31:50.477Z,4.07
2022-08-11T23:35:04.044Z,3.03
2022-08-11T23:38:00.054Z,3.53
2022-08-11T23:40:45.735Z,2.60
2022-08-11T23:43:41.908Z,2.57
2022-08-11T23:46:28.022Z,5.20
2022-08-11T23:49:20.337Z,3.70
2022-08-11T23:52:06.733Z,3.10
2022-08-11T23:54:55.250Z,2.60
2022-08-11T23:57:47.815Z,2.80
